D/T METAR WX W/DIR W/SPE G/SPE TEMP DEWP
16/01/19 01:50 EGTE 160150Z 21015KT 9999 FEW015 SCT028 09/07 Q1011 SSW (210°) 17.3mph 9°C 7°C
16/01/19 01:20 EGTE 160120Z 22014KT 9999 SCT013 BKN028 09/07 Q1012 SW (220°) 16.1mph 9°C 7°C
16/01/19 00:50 EGTE 160050Z 22010KT 9999 SCT013 BKN028 09/08 Q1012 SW (220°) 11.5mph 9°C 8°C
16/01/19 00:20 EGTE 160020Z 19008KT 160V220 9999 FEW010 BKN013 08/07 Q1013 S (190°) 9.2mph 8°C 7°C
15/01/19 23:50 EGTE 152350Z 19010KT 9999 FEW010 BKN016 10/08 Q1013 S (190°) 11.5mph 10°C 8°C
15/01/19 23:20 EGTE 152320Z 20009KT 9999 FEW010 BKN016 08/07 Q1014 SSW (200°) 10.4mph 8°C 7°C
15/01/19 22:50 EGTE 152250Z 20012KT 9999 SCT016 SCT028 08/07 Q1014 SSW (200°) 13.8mph 8°C 7°C
15/01/19 22:20 EGTE 152220Z 19008KT 9999 FEW015 SCT023 09/08 Q1015 S (190°) 9.2mph 9°C 8°C
15/01/19 21:50 EGTE 152150Z 18007KT 9999 SCT018 SCT028 08/06 Q1015 S (180°) 8.1mph 8°C 6°C
15/01/19 21:20 EGTE 152120Z 20004KT 9999 FEW018 BKN028 08/07 Q1015 SSW (200°) 4.6mph 8°C 7°C
15/01/19 20:50 EGTE 152050Z 20005KT 9999 -DZ SCT018 SCT025 09/07 Q1016 -DZ SSW (200°) 5.8mph 9°C 7°C
15/01/19 20:20 EGTE 152020Z 19006KT 9999 FEW024 BKN028 08/06 Q1016 S (190°) 6.9mph 8°C 6°C
15/01/19 19:50 EGTE 151950Z 18008KT 9999 FEW020 BKN032 09/07 Q1016 S (180°) 9.2mph 9°C 7°C
15/01/19 19:20 EGTE 151920Z 19006KT 9999 FEW021 BKN025 09/07 Q1017 S (190°) 6.9mph 9°C 7°C
15/01/19 18:50 EGTE 151850Z 18007KT 9999 FEW021 BKN028 09/07 Q1017 S (180°) 8.1mph 9°C 7°C
15/01/19 18:20 EGTE 151820Z 19007KT 9999 FEW023 BKN028 09/06 Q1017 S (190°) 8.1mph 9°C 6°C
15/01/19 17:50 EGTE 151750Z 19006KT 9999 FEW025 BKN030 09/06 Q1017 S (190°) 6.9mph 9°C 6°C
15/01/19 17:20 EGTE 151720Z 22005KT 9999 BKN035 09/05 Q1018 SW (220°) 5.8mph 9°C 5°C
15/01/19 16:50 EGTE 151650Z 24007KT 9999 BKN033 08/04 Q1018 WSW (240°) 8.1mph 8°C 4°C
15/01/19 16:20 EGTE 151620Z 23008KT 9999 BKN033 09/05 Q1018 SW (230°) 9.2mph 9°C 5°C
15/01/19 15:50 EGTE 151550Z 25008KT 9999 BKN028 09/05 Q1018 WSW (250°) 9.2mph 9°C 5°C
15/01/19 15:20 EGTE 151520Z 24008KT 9999 SCT030 10/05 Q1019 WSW (240°) 9.2mph 10°C 5°C
15/01/19 14:50 EGTE 151450Z 25008KT 9999 SCT028 10/06 Q1019 WSW (250°) 9.2mph 10°C 6°C
15/01/19 14:20 EGTE 151420Z 25009KT 9999 SCT032 10/07 Q1019 WSW (250°) 10.4mph 10°C 7°C
15/01/19 13:50 EGTE 151350Z 24008KT 9999 SCT029 10/06 Q1019 WSW (240°) 9.2mph 10°C 6°C
15/01/19 13:20 EGTE 151320Z 24008KT 9999 SCT031 11/07 Q1020 WSW (240°) 9.2mph 11°C 7°C
15/01/19 12:50 EGTE 151250Z 24011KT 9999 SCT025 09/06 Q1020 WSW (240°) 12.7mph 9°C 6°C
15/01/19 12:20 EGTE 151220Z 23009KT 190V250 9999 SCT020 11/07 Q1021 SW (230°) 10.4mph 11°C 7°C
15/01/19 11:50 EGTE 151150Z 22007KT 9999 SCT020 10/08 Q1021 SW (220°) 8.1mph 10°C 8°C
15/01/19 11:20 EGTE 151120Z 21009KT 9999 SCT020 08/06 Q1021 SSW (210°) 10.4mph 8°C 6°C
15/01/19 10:50 EGTE 151050Z 21009KT 9999 SCT018 09/07 Q1022 SSW (210°) 10.4mph 9°C 7°C
15/01/19 10:20 EGTE 151020Z 21008KT 9999 FEW013 SCT020 08/06 Q1022 SSW (210°) 9.2mph 8°C 6°C
15/01/19 09:50 EGTE 150950Z 20006KT 9999 FEW013 SCT020 07/06 Q1022 SSW (200°) 6.9mph 7°C 6°C
15/01/19 09:20 EGTE 150920Z 20003KT 9999 VCSH BKN015 08/07 Q1022 VCSH SSW (200°) 3.5mph 8°C 7°C
15/01/19 08:50 EGTE 150850Z 20003KT 6000 VCSH BKN015 07/06 Q1022 VCSH SSW (200°) 3.5mph 7°C 6°C
15/01/19 08:20 EGTE 150820Z 21004KT 8000 BKN015 07/06 Q1022 SSW (210°) 4.6mph 7°C 6°C
15/01/19 07:50 EGTE 150750Z 20005KT 8000 FEW010 BKN016 07/06 Q1022 SSW (200°) 5.8mph 7°C 6°C
15/01/19 07:20 EGTE 150720Z 20004KT 8000 -DZ FEW010 BKN014 07/06 Q1022 -DZ SSW (200°) 4.6mph 7°C 6°C
15/01/19 06:50 EGTE 150650Z 19005KT 8000 -DZ FEW010 BKN014 07/06 Q1022 -DZ S (190°) 5.8mph 7°C 6°C
15/01/19 06:20 EGTE 150620Z 21005KT 9000 -DZ FEW010 BKN016 07/06 Q1022 -DZ SSW (210°) 5.8mph 7°C 6°C
15/01/19 05:50 EGTE 150550Z 21006KT 9000 -DZ BKN017 07/05 Q1022 -DZ SSW (210°) 6.9mph 7°C 5°C
15/01/19 01:50 EGTE 150150Z 23004KT 9999 FEW018 SCT027 07/04 Q1024 SW (230°) 4.6mph 7°C 4°C
15/01/19 01:20 EGTE 150120Z 23005KT 9999 FEW025 SCT030 07/04 Q1024 SW (230°) 5.8mph 7°C 4°C
15/01/19 00:50 EGTE 150050Z 19004KT 9999 SCT020 SCT025 07/04 Q1024 S (190°) 4.6mph 7°C 4°C
15/01/19 00:20 EGTE 150020Z 23004KT 9999 BKN024 07/03 Q1025 SW (230°) 4.6mph 7°C 3°C
14/01/19 23:50 EGTE 142350Z 23004KT 9999 BKN025 07/03 Q1025 SW (230°) 4.6mph 7°C 3°C
14/01/19 23:20 EGTE 142320Z 23005KT 9999 BKN026 07/03 Q1025 SW (230°) 5.8mph 7°C 3°C
14/01/19 22:50 EGTE 142250Z 25004KT 9999 BKN028 07/02 Q1025 WSW (250°) 4.6mph 7°C 2°C
14/01/19 22:20 EGTE 142220Z 23005KT 9999 BKN030 06/02 Q1025 SW (230°) 5.8mph 6°C 2°C
14/01/19 21:50 EGTE 142150Z 22004KT 9999 BKN033 07/03 Q1025 SW (220°) 4.6mph 7°C 3°C
14/01/19 21:20 EGTE 142120Z VRB01KT 9999 BKN035 07/02 Q1025 N (0°) 1.2mph 7°C 2°C
14/01/19 20:50 EGTE 142050Z 27003KT 9999 BKN035 07/02 Q1025 W (270°) 3.5mph 7°C 2°C
14/01/19 20:20 EGTE 142020Z 30004KT 270V330 9999 BKN035 07/02 Q1025 WNW (300°) 4.6mph 7°C 2°C
14/01/19 19:50 EGTE 141950Z 28005KT 250V310 9999 BKN035 07/02 Q1025 W (280°) 5.8mph 7°C 2°C
14/01/19 19:20 EGTE 141920Z 28004KT 9999 BKN035 07/02 Q1025 W (280°) 4.6mph 7°C 2°C
14/01/19 18:50 EGTE 141850Z 28003KT 9999 BKN035 07/02 Q1025 W (280°) 3.5mph 7°C 2°C
14/01/19 18:20 EGTE 141820Z 31003KT 9999 BKN035 07/02 Q1025 NW (310°) 3.5mph 7°C 2°C
14/01/19 17:50 EGTE 141750Z 33005KT 9999 BKN035 08/02 Q1025 NNW (330°) 5.8mph 8°C 2°C
14/01/19 16:50 EGTE 141650Z 32008KT 9999 BKN035 07/02 Q1025 NW (320°) 9.2mph 7°C 2°C
14/01/19 16:20 EGTE 141620Z 32009KT 9999 BKN037 08/02 Q1024 NW (320°) 10.4mph 8°C 2°C
14/01/19 15:50 EGTE 141550Z 33009KT 9999 BKN036 08/02 Q1025 NNW (330°) 10.4mph 8°C 2°C
14/01/19 15:20 EGTE 141520Z 31007KT 9999 BKN033 08/03 Q1024 NW (310°) 8.1mph 8°C 3°C
14/01/19 14:50 EGTE 141450Z 32009KT 280V340 9999 BKN032 09/03 Q1024 NW (320°) 10.4mph 9°C 3°C
14/01/19 14:20 EGTE 141420Z 31008KT 9999 BKN032 09/03 Q1024 NW (310°) 9.2mph 9°C 3°C
14/01/19 13:20 EGTE 141320Z 32008KT 9999 BKN033 09/04 Q1024 NW (320°) 9.2mph 9°C 4°C
14/01/19 12:50 EGTE 141250Z 33011KT 9999 BKN034 09/02 Q1024 NNW (330°) 12.7mph 9°C 2°C
14/01/19 12:20 EGTE 141220Z 32011KT 9999 BKN034 09/03 Q1024 NW (320°) 12.7mph 9°C 3°C
14/01/19 11:20 EGTE 141120Z 33009KT 9999 BKN035 09/03 Q1024 NNW (330°) 10.4mph 9°C 3°C
14/01/19 10:50 EGTE 141050Z 34013KT 9999 BKN036 09/02 Q1024 NNW (340°) 15.0mph 9°C 2°C
14/01/19 10:20 EGTE 141020Z 33008KT 9999 BKN036 08/03 Q1024 NNW (330°) 9.2mph 8°C 3°C
14/01/19 09:50 EGTE 140950Z 32007KT 9999 BKN036 08/04 Q1024 NW (320°) 8.1mph 8°C 4°C
14/01/19 09:20 EGTE 140920Z 32005KT 9999 BKN035 09/05 Q1024 NW (320°) 5.8mph 9°C 5°C
14/01/19 08:50 EGTE 140850Z 32006KT 290V350 9999 SCT038 07/04 Q1023 NW (320°) 6.9mph 7°C 4°C
14/01/19 08:20 EGTE 140820Z 32007KT 280V340 9999 SCT035 08/04 Q1023 NW (320°) 8.1mph 8°C 4°C
14/01/19 07:50 EGTE 140750Z 30008KT 9999 SCT037 08/04 Q1022 WNW (300°) 9.2mph 8°C 4°C
14/01/19 06:50 EGTE 140650Z 31008KT 9999 BKN030 08/03 Q1022 NW (310°) 9.2mph 8°C 3°C
14/01/19 06:20 EGTE 140620Z 31007KT 270V350 9999 BKN030 08/03 Q1022 NW (310°) 8.1mph 8°C 3°C
14/01/19 05:50 EGTE 140550Z 30010KT 9999 BKN040 09/03 Q1022 WNW (300°) 11.5mph 9°C 3°C
13/01/19 21:20 EGTE 132120Z 31015KT 9999 FEW020 SCT030 10/07 Q1018 NW (310°) 17.3mph 10°C 7°C
13/01/19 20:50 EGTE 132050Z 32014KT 9999 BKN018 11/08 Q1017 NW (320°) 16.1mph 11°C 8°C
13/01/19 20:20 EGTE 132020Z 31015KT 9999 BKN018 11/08 Q1017 NW (310°) 17.3mph 11°C 8°C
13/01/19 19:50 EGTE 131950Z 31012KT 9999 BKN018 11/08 Q1017 NW (310°) 13.8mph 11°C 8°C
13/01/19 19:20 EGTE 131920Z 31014KT 9999 BKN018 10/08 Q1017 NW (310°) 16.1mph 10°C 8°C
13/01/19 18:50 EGTE 131850Z 31012KT 280V340 9999 FEW016 SCT020 11/09 Q1017 NW (310°) 13.8mph 11°C 9°C
13/01/19 18:20 EGTE 131820Z 30011KT 9999 FEW016 SCT020 11/08 Q1017 WNW (300°) 12.7mph 11°C 8°C
13/01/19 17:50 EGTE 131750Z 31011KT 280V350 9999 FEW016 SCT020 09/07 Q1017 NW (310°) 12.7mph 9°C 7°C
13/01/19 17:20 EGTE 131720Z 31014KT 9999 -DZ BKN016 11/09 Q1017 -DZ NW (310°) 16.1mph 11°C 9°C
13/01/19 16:50 EGTE 131650Z 30012KT 270V330 9999 BKN016 11/09 Q1017 WNW (300°) 13.8mph 11°C 9°C
13/01/19 16:20 EGTE 131620Z 29012KT 260V320 9999 BKN016 10/09 Q1017 WNW (290°) 13.8mph 10°C 9°C
13/01/19 15:50 EGTE 131550Z 28010KT 250V310 9999 BKN016 10/09 Q1017 W (280°) 11.5mph 10°C 9°C
13/01/19 15:20 EGTE 131520Z 28010KT 7000 FEW008 BKN016 10/09 Q1017 W (280°) 11.5mph 10°C 9°C
13/01/19 14:50 EGTE 131450Z 27010KT 240V300 3000 -RADZ BR FEW008 BKN016 10/09 Q1017 -RA -DZ BR W (270°) 11.5mph 10°C 9°C
13/01/19 14:20 EGTE 131420Z 29016KT 260V320 4500 -RADZ HZ BKN016 10/08 Q1018 -RA -DZ HZ WNW (290°) 18.4mph 10°C 8°C
13/01/19 13:50 EGTE 131350Z 27016KT 9999 SCT020 11/08 Q1017 W (270°) 18.4mph 11°C 8°C
13/01/19 13:20 EGTE 131320Z 28017KT 9999 SCT020 12/08 Q1018 W (280°) 19.6mph 12°C 8°C
13/01/19 12:50 EGTE 131250Z 28017G27KT 250V310 9999 FEW020 11/07 Q1018 W (280°) 19.6mph 31.1mph 11°C 7°C
13/01/19 11:50 EGTE 131150Z 30019G29KT 9999 FEW015 11/08 Q1019 WNW (300°) 21.9mph 33.4mph 11°C 8°C
13/01/19 11:20 EGTE 131120Z 29019G30KT 9999 FEW015 11/08 Q1019 WNW (290°) 21.9mph 34.5mph 11°C 8°C
13/01/19 10:50 EGTE 131050Z 29016KT 260V330 9999 FEW015 09/07 Q1019 WNW (290°) 18.4mph 9°C 7°C
13/01/19 10:20 EGTE 131020Z 29015KT 9999 FEW015 10/08 Q1019 WNW (290°) 17.3mph 10°C 8°C
13/01/19 09:50 EGTE 130950Z 29014KT 250V310 9999 FEW015 10/08 Q1020 WNW (290°) 16.1mph 10°C 8°C
13/01/19 09:20 EGTE 130920Z 29018G28KT 260V320 9999 SCT019 10/07 Q1020 WNW (290°) 20.7mph 32.2mph 10°C 7°C
13/01/19 08:50 EGTE 130850Z 30016KT 9999 SCT016 09/07 Q1020 WNW (300°) 18.4mph 9°C 7°C
13/01/19 08:20 EGTE 130820Z 30012KT 270V330 9999 SCT016 09/07 Q1020 WNW (300°) 13.8mph 9°C 7°C
13/01/19 07:50 EGTE 130750Z 30012KT 250V330 9999 SCT016 09/07 Q1020 WNW (300°) 13.8mph 9°C 7°C
13/01/19 07:20 EGTE 130720Z 30012KT 270V330 9999 SCT017 09/07 Q1021 WNW (300°) 13.8mph 9°C 7°C
13/01/19 06:50 EGTE 130650Z 30010KT 260V330 9999 FEW014 SCT017 10/07 Q1021 WNW (300°) 11.5mph 10°C 7°C
12/01/19 17:50 EGTE 121750Z 29010KT 9999 BKN020 09/07 Q1025 WNW (290°) 11.5mph 9°C 7°C
12/01/19 17:20 EGTE 121720Z 30010KT 260V330 9999 BKN022 09/06 Q1025 WNW (300°) 11.5mph 9°C 6°C
12/01/19 16:50 EGTE 121650Z 29015KT 9999 BKN022 11/08 Q1025 WNW (290°) 17.3mph 11°C 8°C
12/01/19 16:20 EGTE 121620Z 30014KT 9999 SCT020 10/07 Q1025 WNW (300°) 16.1mph 10°C 7°C
12/01/19 15:50 EGTE 121550Z 30013KT 260V330 9999 SCT020 09/07 Q1025 WNW (300°) 15.0mph 9°C 7°C
12/01/19 15:20 EGTE 121520Z 30014KT 260V320 9999 SCT022 10/07 Q1025 WNW (300°) 16.1mph 10°C 7°C
12/01/19 14:50 EGTE 121450Z 31012KT 9999 BKN022 10/07 Q1025 NW (310°) 13.8mph 10°C 7°C
12/01/19 14:20 EGTE 121420Z 31013KT 9999 SCT028 10/06 Q1025 NW (310°) 15.0mph 10°C 6°C
12/01/19 13:50 EGTE 121350Z 31014KT 9999 SCT028 10/06 Q1025 NW (310°) 16.1mph 10°C 6°C
12/01/19 13:20 EGTE 121320Z 31011KT 9999 SCT020 10/07 Q1025 NW (310°) 12.7mph 10°C 7°C
12/01/19 12:50 EGTE 121250Z 31015KT 9999 SCT025 11/07 Q1026 NW (310°) 17.3mph 11°C 7°C
12/01/19 12:20 EGTE 121220Z 30013KT 9999 SCT015 11/07 Q1026 WNW (300°) 15.0mph 11°C 7°C
12/01/19 11:50 EGTE 121150Z 29011KT 260V320 9999 7000SW FEW008 BKN013 11/09 Q1026 WNW (290°) 12.7mph 11°C 9°C
12/01/19 11:20 EGTE 121120Z 28009KT 250V320 9999 7000W FEW008 BKN013 09/08 Q1026 W (280°) 10.4mph 9°C 8°C
12/01/19 10:50 EGTE 121050Z 29010KT 260V320 9999 -DZ SCT008 BKN011 09/08 Q1027 -DZ WNW (290°) 11.5mph 9°C 8°C
12/01/19 10:20 EGTE 121020Z 28008G18KT 240V310 9999 BKN011 09/07 Q1027 W (280°) 9.2mph 20.7mph 9°C 7°C
12/01/19 09:50 EGTE 120950Z 28009KT 250V310 9999 BKN007 09/08 Q1027 W (280°) 10.4mph 9°C 8°C
12/01/19 09:20 EGTE 120920Z 28008KT 250V310 6000 -DZ BKN007 10/09 Q1027 -DZ W (280°) 9.2mph 10°C 9°C
12/01/19 08:50 EGTE 120850Z 27006KT 9000 3000N -DZ BKN007 08/07 Q1027 -DZ W (270°) 6.9mph 8°C 7°C
12/01/19 08:20 EGTE 120820Z 27007KT 240V300 9999 BKN010 09/08 Q1027 W (270°) 8.1mph 9°C 8°C
12/01/19 07:50 EGTE 120750Z 29012KT 260V320 9999 FEW008 SCT015 08/07 Q1028 WNW (290°) 13.8mph 8°C 7°C
12/01/19 07:20 EGTE 120720Z 30008KT 260V330 9999 SCT015 09/08 Q1027 WNW (300°) 9.2mph 9°C 8°C
12/01/19 06:50 EGTE 120650Z 28005KT 240V330 9999 -RADZ BKN007 08/07 Q1027 -RA -DZ W (280°) 5.8mph 8°C 7°C
12/01/19 06:20 EGTE 120620Z 26006KT 230V320 9999 -RADZ BKN008 08/07 Q1028 -RA -DZ W (260°) 6.9mph 8°C 7°C
12/01/19 05:50 EGTE 120550Z 29009KT 250V320 9999 -RADZ SCT010 BKN012 09/07 Q1028 -RA -DZ WNW (290°) 10.4mph 9°C 7°C
12/01/19 01:50 EGTE 120150Z VRB02KT 9999 FEW020 BKN035 08/06 Q1030 N (0°) 2.3mph 8°C 6°C
12/01/19 01:20 EGTE 120120Z VRB03KT 9999 FEW020 BKN035 08/07 Q1030 N (0°) 3.5mph 8°C 7°C
12/01/19 00:50 EGTE 120050Z VRB03KT 9999 FEW020 BKN035 07/06 Q1031 N (0°) 3.5mph 7°C 6°C
12/01/19 00:20 EGTE 120020Z 00000KT 9999 FEW015 BKN030 09/07 Q1031 N (0°) 9°C 7°C
11/01/19 23:50 EGTE 112350Z VRB02KT 9999 FEW015 BKN030 07/06 Q1031 N (0°) 2.3mph 7°C 6°C
11/01/19 23:20 EGTE 112320Z 00000KT 9999 BKN035 07/06 Q1032 N (0°) 7°C 6°C
11/01/19 22:50 EGTE 112250Z 00000KT 9999 BKN035 07/05 Q1032 N (0°) 7°C 5°C
11/01/19 22:20 EGTE 112220Z 00000KT 9999 BKN040 07/06 Q1032 N (0°) 7°C 6°C
11/01/19 21:50 EGTE 112150Z VRB02KT 9999 BKN042 07/05 Q1032 N (0°) 2.3mph 7°C 5°C
11/01/19 21:20 EGTE 112120Z VRB01KT 9999 BKN040 08/06 Q1032 N (0°) 1.2mph 8°C 6°C
11/01/19 20:50 EGTE 112050Z 31002KT 9999 BKN036 08/06 Q1032 NW (310°) 2.3mph 8°C 6°C
11/01/19 20:20 EGTE 112020Z 31002KT 9999 BKN036 07/05 Q1032 NW (310°) 2.3mph 7°C 5°C